sensor_id;sensor_type;location;lat;lon;timestamp;pressure;altitude;pressure_sealevel;temperature;humidity
60433;BME280;46286;48.098;11.590;2022-09-17T00:01:00;94992.91;;;9.01;100.00
60433;BME280;46286;48.098;11.590;2022-09-17T00:03:31;94991.63;;;8.99;100.00
60433;BME280;46286;48.098;11.590;2022-09-17T00:06:07;95001.06;;;9.00;100.00
60433;BME280;46286;48.098;11.590;2022-09-17T00:08:34;95002.63;;;9.01;100.00
60433;BME280;46286;48.098;11.590;2022-09-17T00:11:07;95002.69;;;8.91;100.00
60433;BME280;46286;48.098;11.590;2022-09-17T00:13:33;94998.47;;;8.95;100.00
60433;BME280;46286;48.098;11.590;2022-09-17T00:15:58;95005.75;;;9.03;100.00
60433;BME280;46286;48.098;11.590;2022-09-17T00:18:24;94988.50;;;8.92;100.00
60433;BME280;46286;48.098;11.590;2022-09-17T00:20:49;94999.28;;;8.90;100.00
60433;BME280;46286;48.098;11.590;2022-09-17T00:23:15;95000.88;;;8.86;100.00
60433;BME280;46286;48.098;11.590;2022-09-17T00:25:43;95001.66;;;8.87;100.00
60433;BME280;46286;48.098;11.590;2022-09-17T00:28:11;95000.63;;;8.82;100.00
60433;BME280;46286;48.098;11.590;2022-09-17T00:30:41;94997.19;;;8.87;100.00
60433;BME280;46286;48.098;11.590;2022-09-17T00:33:07;95000.16;;;8.75;100.00
60433;BME280;46286;48.098;11.590;2022-09-17T00:35:33;95009.56;;;8.81;100.00
60433;BME280;46286;48.098;11.590;2022-09-17T00:37:59;94999.59;;;8.78;100.00
60433;BME280;46286;48.098;11.590;2022-09-17T00:40:24;95005.81;;;8.93;100.00
60433;BME280;46286;48.098;11.590;2022-09-17T00:42:50;95011.09;;;8.88;100.00
60433;BME280;46286;48.098;11.590;2022-09-17T00:45:18;95009.00;;;8.84;100.00
60433;BME280;46286;48.098;11.590;2022-09-17T00:47:56;95011.19;;;8.72;100.00
60433;BME280;46286;48.098;11.590;2022-09-17T00:50:42;95013.47;;;8.84;100.00
60433;BME280;46286;48.098;11.590;2022-09-17T00:53:15;95014.81;;;8.81;100.00
60433;BME280;46286;48.098;11.590;2022-09-17T00:55:45;95014.81;;;8.81;100.00
60433;BME280;46286;48.098;11.590;2022-09-17T00:58:16;95016.44;;;8.72;100.00
60433;BME280;46286;48.098;11.590;2022-09-17T01:00:43;95014.84;;;8.71;100.00
60433;BME280;46286;48.098;11.590;2022-09-17T01:03:08;95011.69;;;8.69;100.00
60433;BME280;46286;48.098;11.590;2022-09-17T01:11:34;95031.66;;;8.65;100.00
60433;BME280;46286;48.098;11.590;2022-09-17T01:14:13;95015.84;;;8.86;100.00
60433;BME280;46286;48.098;11.590;2022-09-17T01:30:57;95019.66;;;8.54;100.00
60433;BME280;46286;48.098;11.590;2022-09-17T01:36:29;95020.38;;;8.64;100.00
60433;BME280;46286;48.098;11.590;2022-09-17T01:39:39;95012.81;;;8.53;100.00
60433;BME280;46286;48.098;11.590;2022-09-17T01:47:26;95018.84;;;8.53;100.00
60433;BME280;46286;48.098;11.590;2022-09-17T01:50:00;95010.69;;;8.55;100.00
60433;BME280;46286;48.098;11.590;2022-09-17T01:52:27;94999.22;;;8.51;100.00
60433;BME280;46286;48.098;11.590;2022-09-17T01:54:58;95012.81;;;8.47;100.00
60433;BME280;46286;48.098;11.590;2022-09-17T01:57:31;95007.31;;;8.39;100.00
60433;BME280;46286;48.098;11.590;2022-09-17T02:00:07;95014.94;;;8.51;100.00
60433;BME280;46286;48.098;11.590;2022-09-17T02:02:52;95010.47;;;8.51;100.00
60433;BME280;46286;48.098;11.590;2022-09-17T02:05:30;95011.25;;;8.52;100.00
60433;BME280;46286;48.098;11.590;2022-09-17T02:08:12;95011.78;;;8.48;100.00
60433;BME280;46286;48.098;11.590;2022-09-17T02:10:44;95008.06;;;8.60;100.00
60433;BME280;46286;48.098;11.590;2022-09-17T02:13:33;95005.72;;;8.58;100.00
60433;BME280;46286;48.098;11.590;2022-09-17T02:16:07;95002.59;;;8.51;100.00
60433;BME280;46286;48.098;11.590;2022-09-17T02:18:59;94991.34;;;8.45;100.00
60433;BME280;46286;48.098;11.590;2022-09-17T02:21:39;95003.91;;;8.43;100.00
60433;BME280;46286;48.098;11.590;2022-09-17T02:27:03;94997.09;;;8.42;100.00
60433;BME280;46286;48.098;11.590;2022-09-17T02:29:38;94985.03;;;8.41;100.00
60433;BME280;46286;48.098;11.590;2022-09-17T02:32:05;94989.22;;;8.42;100.00
60433;BME280;46286;48.098;11.590;2022-09-17T02:34:30;94994.47;;;8.37;100.00
60433;BME280;46286;48.098;11.590;2022-09-17T02:36:56;94980.91;;;8.25;100.00
60433;BME280;46286;48.098;11.590;2022-09-17T02:39:26;94992.41;;;8.39;100.00
60433;BME280;46286;48.098;11.590;2022-09-17T02:58:07;94950.50;;;8.19;100.00
60433;BME280;46286;48.098;11.590;2022-09-17T03:00:37;94948.31;;;8.41;100.00
60433;BME280;46286;48.098;11.590;2022-09-17T03:06:17;94949.44;;;8.25;100.00
60433;BME280;46286;48.098;11.590;2022-09-17T03:08:44;94936.34;;;8.20;100.00
60433;BME280;46286;48.098;11.590;2022-09-17T03:11:11;94942.13;;;8.11;100.00
60433;BME280;46286;48.098;11.590;2022-09-17T03:13:37;94937.97;;;8.10;100.00
60433;BME280;46286;48.098;11.590;2022-09-17T03:16:04;94942.16;;;8.06;100.00
60433;BME280;46286;48.098;11.590;2022-09-17T03:18:30;94950.50;;;8.19;100.00
60433;BME280;46286;48.098;11.590;2022-09-17T03:20:56;94938.47;;;8.07;100.00
60433;BME280;46286;48.098;11.590;2022-09-17T03:23:21;94945.31;;;8.03;100.00
60433;BME280;46286;48.098;11.590;2022-09-17T03:25:47;94956.31;;;8.05;100.00
60433;BME280;46286;48.098;11.590;2022-09-17T03:28:14;94953.19;;;8.03;100.00
60433;BME280;46286;48.098;11.590;2022-09-17T03:30:42;94958.69;;;7.91;100.00
60433;BME280;46286;48.098;11.590;2022-09-17T03:33:07;94946.66;;;7.85;100.00
60433;BME280;46286;48.098;11.590;2022-09-17T03:35:33;94950.06;;;7.86;100.00
60433;BME280;46286;48.098;11.590;2022-09-17T03:37:58;94954.25;;;7.87;100.00
60433;BME280;46286;48.098;11.590;2022-09-17T03:40:24;94949.28;;;7.85;100.00
60433;BME280;46286;48.098;11.590;2022-09-17T03:42:50;94955.03;;;7.87;100.00
60433;BME280;46286;48.098;11.590;2022-09-17T03:45:15;94954.53;;;7.70;100.00
60433;BME280;46286;48.098;11.590;2022-09-17T03:47:41;94962.66;;;7.78;100.00
60433;BME280;46286;48.098;11.590;2022-09-17T03:50:06;94956.91;;;7.71;100.00
60433;BME280;46286;48.098;11.590;2022-09-17T03:52:32;94957.41;;;7.78;100.00
60433;BME280;46286;48.098;11.590;2022-09-17T03:54:57;94957.16;;;7.85;100.00
60433;BME280;46286;48.098;11.590;2022-09-17T03:57:23;94962.16;;;7.82;100.00
60433;BME280;46286;48.098;11.590;2022-09-17T03:59:48;94962.16;;;7.82;100.00
60433;BME280;46286;48.098;11.590;2022-09-17T04:02:14;94965.28;;;7.73;100.00
60433;BME280;46286;48.098;11.590;2022-09-17T04:04:39;94959.50;;;7.87;100.00
60433;BME280;46286;48.098;11.590;2022-09-17T04:07:05;94950.63;;;7.77;100.00
60433;BME280;46286;48.098;11.590;2022-09-17T04:09:31;94950.34;;;7.79;100.00
60433;BME280;46286;48.098;11.590;2022-09-17T04:11:56;94956.91;;;7.82;100.00
60433;BME280;46286;48.098;11.590;2022-09-17T04:14:22;94964.75;;;7.76;100.00
60433;BME280;46286;48.098;11.590;2022-09-17T04:16:47;94946.41;;;7.71;100.00
60433;BME280;46286;48.098;11.590;2022-09-17T04:19:13;94953.78;;;7.69;100.00
60433;BME280;46286;48.098;11.590;2022-09-17T04:21:38;94956.41;;;7.74;100.00
60433;BME280;46286;48.098;11.590;2022-09-17T04:24:04;94941.72;;;7.73;100.00
60433;BME280;46286;48.098;11.590;2022-09-17T04:26:29;94941.16;;;7.92;100.00
60433;BME280;46286;48.098;11.590;2022-09-17T04:28:55;94939.06;;;7.84;100.00
60433;BME280;46286;48.098;11.590;2022-09-17T04:31:20;94945.88;;;7.95;100.00
60433;BME280;46286;48.098;11.590;2022-09-17T04:33:49;94959.50;;;7.87;100.00
60433;BME280;46286;48.098;11.590;2022-09-17T04:36:15;94977.88;;;7.82;100.00
60433;BME280;46286;48.098;11.590;2022-09-17T04:38:40;94978.09;;;7.85;100.00
60433;BME280;46286;48.098;11.590;2022-09-17T04:41:07;94995.09;;;7.93;100.00
60433;BME280;46286;48.098;11.590;2022-09-17T04:43:32;94992.50;;;7.83;100.00
60433;BME280;46286;48.098;11.590;2022-09-17T04:45:58;95000.34;;;7.93;100.00
60433;BME280;46286;48.098;11.590;2022-09-17T04:48:23;95001.94;;;7.84;100.00
60433;BME280;46286;48.098;11.590;2022-09-17T04:50:49;95009.56;;;7.75;100.00
60433;BME280;46286;48.098;11.590;2022-09-17T04:53:14;95029.22;;;7.77;100.00
60433;BME280;46286;48.098;11.590;2022-09-17T04:55:41;95031.78;;;7.98;100.00
60433;BME280;46286;48.098;11.590;2022-09-17T04:58:06;95047.00;;;7.86;100.00
60433;BME280;46286;48.098;11.590;2022-09-17T05:00:32;95044.91;;;7.98;100.00
60433;BME280;46286;48.098;11.590;2022-09-17T05:02:59;95049.09;;;7.84;100.00
60433;BME280;46286;48.098;11.590;2022-09-17T05:05:25;95051.19;;;7.87;100.00
60433;BME280;46286;48.098;11.590;2022-09-17T05:07:50;95054.34;;;7.94;100.00
60433;BME280;46286;48.098;11.590;2022-09-17T05:10:17;95052.25;;;7.96;100.00
60433;BME280;46286;48.098;11.590;2022-09-17T05:12:51;95055.66;;;8.02;100.00
60433;BME280;46286;48.098;11.590;2022-09-17T05:15:17;95063.22;;;7.93;100.00
60433;BME280;46286;48.098;11.590;2022-09-17T05:17:43;95068.22;;;7.79;100.00
60433;BME280;46286;48.098;11.590;2022-09-17T05:20:09;95075.56;;;7.97;100.00
60433;BME280;46286;48.098;11.590;2022-09-17T05:22:43;95085.22;;;8.07;100.00
60433;BME280;46286;48.098;11.590;2022-09-17T05:25:09;95085.78;;;7.99;100.00
60433;BME280;46286;48.098;11.590;2022-09-17T05:27:35;95087.59;;;7.98;100.00
60433;BME280;46286;48.098;11.590;2022-09-17T05:30:00;95091.00;;;8.04;100.00
60433;BME280;46286;48.098;11.590;2022-09-17T05:32:26;95103.59;;;7.92;100.00
60433;BME280;46286;48.098;11.590;2022-09-17T05:34:51;95113.03;;;7.88;100.00
60433;BME280;46286;48.098;11.590;2022-09-17T05:37:16;95113.81;;;7.98;100.00
60433;BME280;46286;48.098;11.590;2022-09-17T05:39:42;95118.03;;;7.94;100.00
60433;BME280;46286;48.098;11.590;2022-09-17T05:42:07;95108.81;;;7.87;100.00
60433;BME280;46286;48.098;11.590;2022-09-17T05:44:33;95121.41;;;7.95;100.00
60433;BME280;46286;48.098;11.590;2022-09-17T05:46:58;95119.84;;;8.09;100.00
60433;BME280;46286;48.098;11.590;2022-09-17T05:49:24;95128.50;;;8.05;100.00
60433;BME280;46286;48.098;11.590;2022-09-17T05:51:50;95141.34;;;8.06;100.00
60433;BME280;46286;48.098;11.590;2022-09-17T05:54:16;95133.47;;;8.01;100.00
60433;BME280;46286;48.098;11.590;2022-09-17T05:56:41;95135.03;;;7.92;100.00
60433;BME280;46286;48.098;11.590;2022-09-17T05:59:07;95121.94;;;7.87;100.00
60433;BME280;46286;48.098;11.590;2022-09-17T06:01:32;95130.31;;;7.99;100.00
60433;BME280;46286;48.098;11.590;2022-09-17T06:03:58;95125.63;;;7.96;100.00
60433;BME280;46286;48.098;11.590;2022-09-17T06:06:23;95122.47;;;7.89;100.00
60433;BME280;46286;48.098;11.590;2022-09-17T06:08:49;95126.13;;;7.98;100.00
60433;BME280;46286;48.098;11.590;2022-09-17T06:11:14;95126.63;;;7.79;100.00
60433;BME280;46286;48.098;11.590;2022-09-17T06:13:40;95121.41;;;7.85;100.00
60433;BME280;46286;48.098;11.590;2022-09-17T06:16:07;95121.94;;;7.87;100.00
60433;BME280;46286;48.098;11.590;2022-09-17T06:18:33;95125.59;;;7.86;100.00
60433;BME280;46286;48.098;11.590;2022-09-17T06:21:00;95130.31;;;7.94;100.00
60433;BME280;46286;48.098;11.590;2022-09-17T06:23:27;95122.97;;;7.91;100.00
60433;BME280;46286;48.098;11.590;2022-09-17T06:25:57;95131.38;;;8.03;100.00
60433;BME280;46286;48.098;11.590;2022-09-17T06:28:27;95132.41;;;7.97;100.00
60433;BME280;46286;48.098;11.590;2022-09-17T06:30:53;95134.00;;;7.98;100.00
60433;BME280;46286;48.098;11.590;2022-09-17T06:33:21;95134.00;;;7.88;100.00
60433;BME280;46286;48.098;11.590;2022-09-17T06:35:47;95125.63;;;7.96;100.00
60433;BME280;46286;48.098;11.590;2022-09-17T06:38:13;95125.63;;;7.96;100.00
60433;BME280;46286;48.098;11.590;2022-09-17T06:40:38;95136.09;;;8.06;100.00
60433;BME280;46286;48.098;11.590;2022-09-17T06:43:04;95124.03;;;8.10;100.00
60433;BME280;46286;48.098;11.590;2022-09-17T06:45:29;95113.28;;;8.12;100.00
60433;BME280;46286;48.098;11.590;2022-09-17T06:47:55;95126.13;;;8.13;100.00
60433;BME280;46286;48.098;11.590;2022-09-17T06:50:20;95123.50;;;7.98;100.00
60433;BME280;46286;48.098;11.590;2022-09-17T06:52:50;95134.53;;;7.95;100.00
60433;BME280;46286;48.098;11.590;2022-09-17T06:55:16;95128.72;;;7.83;100.00
60433;BME280;46286;48.098;11.590;2022-09-17T06:57:41;95131.38;;;7.88;100.00
60433;BME280;46286;48.098;11.590;2022-09-17T07:00:08;95127.19;;;8.02;100.00
60433;BME280;46286;48.098;11.590;2022-09-17T07:02:34;95128.22;;;8.01;100.00
60433;BME280;46286;48.098;11.590;2022-09-17T07:05:00;95110.94;;;7.95;100.00
60433;BME280;46286;48.098;11.590;2022-09-17T07:07:25;95111.97;;;7.94;100.00
60433;BME280;46286;48.098;11.590;2022-09-17T07:09:51;95100.97;;;8.12;100.00
60433;BME280;46286;48.098;11.590;2022-09-17T07:12:18;95113.03;;;8.03;100.00
60433;BME280;46286;48.098;11.590;2022-09-17T07:14:44;95114.59;;;7.99;100.00
60433;BME280;46286;48.098;11.590;2022-09-17T07:17:10;95109.88;;;8.06;100.00
60433;BME280;46286;48.098;11.590;2022-09-17T07:19:36;95117.22;;;8.04;100.00
60433;BME280;46286;48.098;11.590;2022-09-17T07:22:01;95110.13;;;8.30;100.00
60433;BME280;46286;48.098;11.590;2022-09-17T07:24:27;95117.19;;;8.14;100.00
60433;BME280;46286;48.098;11.590;2022-09-17T07:26:53;95120.34;;;8.47;100.00
60433;BME280;46286;48.098;11.590;2022-09-17T07:29:18;95113.00;;;8.39;100.00
60433;BME280;46286;48.098;11.590;2022-09-17T07:31:45;95114.59;;;8.51;100.00
60433;BME280;46286;48.098;11.590;2022-09-17T07:34:11;95113.56;;;8.46;100.00
60433;BME280;46286;48.098;11.590;2022-09-17T07:36:36;95107.22;;;8.53;100.00
60433;BME280;46286;48.098;11.590;2022-09-17T07:39:02;95111.94;;;8.56;100.00
60433;BME280;46286;48.098;11.590;2022-09-17T07:41:27;95104.06;;;8.61;100.00
60433;BME280;46286;48.098;11.590;2022-09-17T07:43:53;95106.19;;;8.54;100.00
60433;BME280;46286;48.098;11.590;2022-09-17T07:46:20;95104.03;;;8.71;100.00
60433;BME280;46286;48.098;11.590;2022-09-17T07:48:46;95098.81;;;8.71;100.00
60433;BME280;46286;48.098;11.590;2022-09-17T07:51:19;95104.06;;;8.61;100.00
60433;BME280;46286;48.098;11.590;2022-09-17T07:53:46;95108.72;;;8.84;100.00
60433;BME280;46286;48.098;11.590;2022-09-17T07:56:12;95095.09;;;8.82;100.00
60433;BME280;46286;48.098;11.590;2022-09-17T07:58:37;95109.03;;;8.67;100.00
60433;BME280;46286;48.098;11.590;2022-09-17T08:01:05;95104.81;;;8.72;100.00
60433;BME280;46286;48.098;11.590;2022-09-17T08:03:31;95108.81;;;8.54;100.00
60433;BME280;46286;48.098;11.590;2022-09-17T08:06:09;95122.97;;;8.53;100.00
60433;BME280;46286;48.098;11.590;2022-09-17T08:08:35;95120.34;;;8.58;100.00
60433;BME280;46286;48.098;11.590;2022-09-17T08:11:12;95124.00;;;8.67;100.00
60433;BME280;46286;48.098;11.590;2022-09-17T08:13:38;95126.63;;;8.62;100.00
60433;BME280;46286;48.098;11.590;2022-09-17T08:16:06;95111.16;;;8.55;100.00
60433;BME280;46286;48.098;11.590;2022-09-17T08:18:32;95112.75;;;8.56;100.00
60433;BME280;46286;48.098;11.590;2022-09-17T08:21:00;95121.38;;;8.62;100.00
60433;BME280;46286;48.098;11.590;2022-09-17T08:23:26;95118.72;;;8.77;100.00
60433;BME280;46286;48.098;11.590;2022-09-17T08:25:58;95128.16;;;8.83;100.00
60433;BME280;46286;48.098;11.590;2022-09-17T08:28:26;95121.78;;;9.00;100.00
60433;BME280;46286;48.098;11.590;2022-09-17T08:30:53;95136.47;;;9.06;100.00
60433;BME280;46286;48.098;11.590;2022-09-17T08:33:19;95137.22;;;9.17;100.00
60433;BME280;46286;48.098;11.590;2022-09-17T08:35:55;95134.81;;;9.26;100.00
60433;BME280;46286;48.098;11.590;2022-09-17T08:38:28;95137.41;;;9.31;100.00
60433;BME280;46286;48.098;11.590;2022-09-17T08:46:12;95152.53;;;9.49;100.00
60433;BME280;46286;48.098;11.590;2022-09-17T08:48:41;95157.78;;;9.54;100.00
60433;BME280;46286;48.098;11.590;2022-09-17T08:51:18;95145.22;;;9.46;100.00
60433;BME280;46286;48.098;11.590;2022-09-17T08:53:58;95153.31;;;9.55;100.00
60433;BME280;46286;48.098;11.590;2022-09-17T08:56:26;95154.69;;;9.42;100.00
60433;BME280;46286;48.098;11.590;2022-09-17T08:59:15;95158.34;;;9.46;100.00
60433;BME280;46286;48.098;11.590;2022-09-17T09:02:13;95165.78;;;9.29;100.00
60433;BME280;46286;48.098;11.590;2022-09-17T09:04:59;95168.44;;;9.18;100.00
60433;BME280;46286;48.098;11.590;2022-09-17T09:07:30;95162.16;;;9.19;100.00
60433;BME280;46286;48.098;11.590;2022-09-17T09:10:07;95168.69;;;9.27;100.00
60433;BME280;46286;48.098;11.590;2022-09-17T09:12:37;95166.31;;;9.26;100.00
60433;BME280;46286;48.098;11.590;2022-09-17T09:15:26;95171.63;;;9.15;100.00
60433;BME280;46286;48.098;11.590;2022-09-17T09:18:00;95171.56;;;9.26;100.00
60433;BME280;46286;48.098;11.590;2022-09-17T09:23:04;95175.25;;;9.25;100.00
60433;BME280;46286;48.098;11.590;2022-09-17T09:25:40;95170.44;;;9.42;100.00
60433;BME280;46286;48.098;11.590;2022-09-17T09:33:32;95174.16;;;9.41;100.00
60433;BME280;46286;48.098;11.590;2022-09-17T09:36:00;95169.38;;;9.48;100.00
60433;BME280;46286;48.098;11.590;2022-09-17T09:38:50;95169.13;;;9.50;100.00
60433;BME280;46286;48.098;11.590;2022-09-17T09:41:39;95179.94;;;9.38;100.00
60433;BME280;46286;48.098;11.590;2022-09-17T09:44:09;95167.91;;;9.27;100.00
60433;BME280;46286;48.098;11.590;2022-09-17T09:52:38;95179.09;;;9.48;100.00
60433;BME280;46286;48.098;11.590;2022-09-17T09:55:26;95178.94;;;9.79;100.00
60433;BME280;46286;48.098;11.590;2022-09-17T09:58:04;95176.44;;;9.98;100.00
60433;BME280;46286;48.098;11.590;2022-09-17T10:00:36;95176.03;;;9.80;100.00
60433;BME280;46286;48.098;11.590;2022-09-17T10:03:11;95183.50;;;9.58;100.00
60433;BME280;46286;48.098;11.590;2022-09-17T10:05:39;95181.16;;;9.56;100.00
60433;BME280;46286;48.098;11.590;2022-09-17T10:08:16;95166.53;;;9.40;100.00
60433;BME280;46286;48.098;11.590;2022-09-17T10:11:05;95172.09;;;9.28;100.00
60433;BME280;46286;48.098;11.590;2022-09-17T10:13:33;95177.34;;;9.28;100.00
60433;BME280;46286;48.098;11.590;2022-09-17T10:18:46;95196.28;;;9.14;100.00
60433;BME280;46286;48.098;11.590;2022-09-17T10:21:21;95196.88;;;9.01;100.00
60433;BME280;46286;48.098;11.590;2022-09-17T10:23:49;95196.34;;;8.94;100.00
60433;BME280;46286;48.098;11.590;2022-09-17T10:26:32;95197.41;;;8.88;100.00
60433;BME280;46286;48.098;11.590;2022-09-17T10:29:00;95207.69;;;8.74;100.00
60433;BME280;46286;48.098;11.590;2022-09-17T10:31:26;95212.13;;;8.63;100.00
60433;BME280;46286;48.098;11.590;2022-09-17T10:33:55;95206.88;;;8.47;100.00
60433;BME280;46286;48.098;11.590;2022-09-17T10:36:43;95202.69;;;8.36;100.00
60433;BME280;46286;48.098;11.590;2022-09-17T10:39:31;95202.69;;;8.21;100.00
60433;BME280;46286;48.098;11.590;2022-09-17T10:44:33;95195.88;;;8.25;100.00
60433;BME280;46286;48.098;11.590;2022-09-17T10:47:10;95193.22;;;8.30;100.00
60433;BME280;46286;48.098;11.590;2022-09-17T10:49:45;95198.47;;;8.40;100.00
60433;BME280;46286;48.098;11.590;2022-09-17T11:00:21;95192.44;;;8.40;100.00
60433;BME280;46286;48.098;11.590;2022-09-17T11:03:11;95196.38;;;8.37;100.00
60433;BME280;46286;48.098;11.590;2022-09-17T11:06:01;95190.34;;;8.21;100.00
60433;BME280;46286;48.098;11.590;2022-09-17T11:08:34;95202.72;;;8.46;100.00
60433;BME280;46286;48.098;11.590;2022-09-17T11:11:10;95187.72;;;8.78;100.00
60433;BME280;46286;48.098;11.590;2022-09-17T11:13:48;95194.28;;;8.70;100.00
60433;BME280;46286;48.098;11.590;2022-09-17T11:19:30;95181.69;;;8.77;100.00
60433;BME280;46286;48.098;11.590;2022-09-17T11:22:23;95183.25;;;8.78;100.00
60433;BME280;46286;48.098;11.590;2022-09-17T11:25:49;95181.19;;;8.60;100.00
60433;BME280;46286;48.098;11.590;2022-09-17T11:36:03;95177.47;;;8.81;100.00
60433;BME280;46286;48.098;11.590;2022-09-17T11:38:48;95176.34;;;9.13;100.00
60433;BME280;46286;48.098;11.590;2022-09-17T11:41:32;95185.81;;;9.04;100.00
60433;BME280;46286;48.098;11.590;2022-09-17T11:44:06;95187.13;;;9.01;100.00
60433;BME280;46286;48.098;11.590;2022-09-17T11:46:45;95175.38;;;8.83;100.00
60433;BME280;46286;48.098;11.590;2022-09-17T11:52:04;95183.66;;;9.22;100.00
60433;BME280;46286;48.098;11.590;2022-09-17T11:57:30;95172.59;;;9.85;100.00
60433;BME280;46286;48.098;11.590;2022-09-17T12:08:20;95166.22;;;9.46;100.00
60433;BME280;46286;48.098;11.590;2022-09-17T12:10:57;95155.56;;;9.77;100.00
60433;BME280;46286;48.098;11.590;2022-09-17T12:13:38;95155.28;;;11.69;100.00
60433;BME280;46286;48.098;11.590;2022-09-17T12:16:24;95150.00;;;12.59;100.00
60433;BME280;46286;48.098;11.590;2022-09-17T12:21:50;95142.91;;;13.15;100.00
60433;BME280;46286;48.098;11.590;2022-09-17T12:24:21;95143.88;;;12.30;100.00
60433;BME280;46286;48.098;11.590;2022-09-17T12:29:30;95150.66;;;11.60;100.00
60433;BME280;46286;48.098;11.590;2022-09-17T12:32:21;95140.53;;;11.05;100.00
60433;BME280;46286;48.098;11.590;2022-09-17T12:37:26;95142.94;;;10.48;100.00
60433;BME280;46286;48.098;11.590;2022-09-17T12:45:33;95150.72;;;9.50;100.00
60433;BME280;46286;48.098;11.590;2022-09-17T12:51:24;95150.66;;;8.95;100.00
60433;BME280;46286;48.098;11.590;2022-09-17T12:54:08;95151.22;;;8.92;100.00
60433;BME280;46286;48.098;11.590;2022-09-17T12:59:15;95148.59;;;9.97;100.00
60433;BME280;46286;48.098;11.590;2022-09-17T13:01:51;95138.94;;;11.29;100.00
60433;BME280;46286;48.098;11.590;2022-09-17T13:10:54;95128.56;;;11.56;100.00
60433;BME280;46286;48.098;11.590;2022-09-17T13:12:56;95129.38;;;12.47;100.00
60433;BME280;46286;48.098;11.590;2022-09-17T13:15:36;95118.06;;;13.02;100.00
60433;BME280;46286;48.098;11.590;2022-09-17T13:21:06;95133.38;;;10.87;100.00
60433;BME280;46286;48.098;11.590;2022-09-17T13:23:46;95134.88;;;10.05;100.00
60433;BME280;46286;48.098;11.590;2022-09-17T13:26:15;95125.16;;;9.66;100.00
60433;BME280;46286;48.098;11.590;2022-09-17T13:28:44;95125.84;;;9.77;100.00
60433;BME280;46286;48.098;11.590;2022-09-17T13:31:10;95128.41;;;9.42;100.00
60433;BME280;46286;48.098;11.590;2022-09-17T13:33:59;95120.16;;;9.19;100.00
60433;BME280;46286;48.098;11.590;2022-09-17T13:36:42;95124.69;;;8.93;100.00
60433;BME280;46286;48.098;11.590;2022-09-17T13:39:30;95141.66;;;9.22;100.00
60433;BME280;46286;48.098;11.590;2022-09-17T13:44:36;95139.16;;;8.91;100.00
60433;BME280;46286;48.098;11.590;2022-09-17T13:47:12;95144.94;;;8.77;100.00
60433;BME280;46286;48.098;11.590;2022-09-17T13:49:46;95162.31;;;8.58;100.00
60433;BME280;46286;48.098;11.590;2022-09-17T13:52:14;95147.63;;;8.52;100.00
60433;BME280;46286;48.098;11.590;2022-09-17T13:54:53;95142.38;;;8.52;100.00
60433;BME280;46286;48.098;11.590;2022-09-17T13:57:20;95147.06;;;8.75;100.00
60433;BME280;46286;48.098;11.590;2022-09-17T13:59:55;95138.03;;;9.07;100.00
60433;BME280;46286;48.098;11.590;2022-09-17T14:02:32;95138.44;;;9.35;100.00
60433;BME280;46286;48.098;11.590;2022-09-17T14:05:36;95138.91;;;9.52;100.00
60433;BME280;46286;48.098;11.590;2022-09-17T14:08:10;95133.66;;;9.52;100.00
60433;BME280;46286;48.098;11.590;2022-09-17T14:10:41;95134.72;;;9.46;100.00
60433;BME280;46286;48.098;11.590;2022-09-17T14:13:45;95131.44;;;9.65;100.00
60433;BME280;46286;48.098;11.590;2022-09-17T14:19:30;95134.91;;;10.00;100.00
60433;BME280;46286;48.098;11.590;2022-09-17T14:22:09;95138.25;;;10.11;100.00
60433;BME280;46286;48.098;11.590;2022-09-17T14:24:44;95133.44;;;10.18;100.00
60433;BME280;46286;48.098;11.590;2022-09-17T14:27:21;95144.22;;;10.21;100.00
60433;BME280;46286;48.098;11.590;2022-09-17T14:30:11;95140.50;;;10.22;100.00
60433;BME280;46286;48.098;11.590;2022-09-17T14:32:57;95142.72;;;10.10;100.00
60433;BME280;46286;48.098;11.590;2022-09-17T14:35:47;95134.00;;;9.80;100.00
60433;BME280;46286;48.098;11.590;2022-09-17T14:38:22;95131.75;;;9.58;100.00
60433;BME280;46286;48.098;11.590;2022-09-17T14:41:00;95130.44;;;9.61;100.00
60433;BME280;46286;48.098;11.590;2022-09-17T14:43:48;95132.06;;;9.51;100.00
60433;BME280;46286;48.098;11.590;2022-09-17T14:46:23;95129.84;;;9.74;100.00
60433;BME280;46286;48.098;11.590;2022-09-17T14:48:49;95134.16;;;9.49;100.00
60433;BME280;46286;48.098;11.590;2022-09-17T14:53:47;95131.09;;;9.37;100.00
60433;BME280;46286;48.098;11.590;2022-09-17T14:56:16;95141.53;;;9.47;100.00
60433;BME280;46286;48.098;11.590;2022-09-17T14:58:48;95135.75;;;9.50;100.00
60433;BME280;46286;48.098;11.590;2022-09-17T15:01:23;95132.06;;;9.51;100.00
60433;BME280;46286;48.098;11.590;2022-09-17T15:03:49;95132.56;;;9.59;100.00
60433;BME280;46286;48.098;11.590;2022-09-17T15:06:20;95156.25;;;9.43;100.00
60433;BME280;46286;48.098;11.590;2022-09-17T15:08:45;95166.88;;;9.23;100.00
60433;BME280;46286;48.098;11.590;2022-09-17T15:11:11;95165.41;;;8.91;100.00
60433;BME280;46286;48.098;11.590;2022-09-17T15:13:51;95163.00;;;8.89;100.00
60433;BME280;46286;48.098;11.590;2022-09-17T15:16:26;95169.09;;;8.79;100.00
60433;BME280;46286;48.098;11.590;2022-09-17T15:18:58;95176.94;;;8.84;100.00
60433;BME280;46286;48.098;11.590;2022-09-17T15:21:43;95170.94;;;8.74;100.00
60433;BME280;46286;48.098;11.590;2022-09-17T15:24:33;95183.00;;;8.85;100.00
60433;BME280;46286;48.098;11.590;2022-09-17T15:27:15;95186.41;;;8.75;100.00
60433;BME280;46286;48.098;11.590;2022-09-17T15:29:48;95180.38;;;8.70;100.00
60433;BME280;46286;48.098;11.590;2022-09-17T15:32:15;95194.81;;;8.82;100.00
60433;BME280;46286;48.098;11.590;2022-09-17T15:34:41;95183.00;;;8.70;100.00
60433;BME280;46286;48.098;11.590;2022-09-17T15:37:18;95182.75;;;8.61;100.00